Kinsman, Illinois
Current Conditions -  °F | °C
As of 10:15 AM on Sunday 25 Jan 2015 (Local Time) from KC09 Reporting Station
Light Snow Light Snow  
Wind Chill: 25°   Ceiling: 700
Heat Index: 33°   Visibility: 2.5mi
Dew Point: 33°   Wind: 10mph
Humidity: 100%   Direction: 50°NE
Pressure: 29.73"   Gusts: NA
Location:  41.19°N, 88.57°W
Report Text: KC09 251615Z AUTO 05009KT 2 1/2SM -SN OVC007 01/01 A2973 RMK AO2 T00050005
Loading
Personal Weather Stations






























Interactive Weather Map New forecast layout! Learn more

10-Day Weather Forecast

Advertisements
Track Severe Weather on mobile